Time;durP1;ratioP1;P1;durP2;ratioP2;P2;SDS_P1;SDS_P2;PMS_P1;PMS_P2;Temp;Humidity;BMP_temperature;BMP_pressure;BME280_temperature;BME280_humidity;BME280_pressure;Samples;Min_cycle;Max_cycle;Signal;HPM_P1;HPM_P2
2021/12/30 00:01:53;;;;;;;40.73;22.60;;;;;;;-2.26;73.20;101030.28;1852889;77;20874;-75
2021/12/30 00:04:24;;;;;;;39.98;22.00;;;;;;;-2.25;73.20;101028.12;1852795;77;21171;-75
2021/12/30 00:06:51;;;;;;;44.33;23.87;;;;;;;-2.25;73.21;101031.55;1852750;77;20889;-76
2021/12/30 00:09:20;;;;;;;39.88;22.98;;;;;;;-2.25;73.20;101026.84;1852697;77;21395;-74
2021/12/30 00:11:47;;;;;;;46.00;23.42;;;;;;;-2.25;73.19;101033.27;1852628;77;21489;-74
2021/12/30 00:14:15;;;;;;;48.73;26.02;;;;;;;-2.24;73.17;101028.57;1852771;77;20826;-75
2021/12/30 00:16:42;;;;;;;45.00;26.12;;;;;;;-2.25;73.18;101030.26;1853149;77;21099;-74
2021/12/30 00:19:12;;;;;;;48.83;26.20;;;;;;;-2.23;73.18;101036.25;1852518;77;21579;-75
2021/12/30 00:21:39;;;;;;;43.15;25.77;;;;;;;-2.21;73.17;101037.55;1853556;77;21359;-77
2021/12/30 00:24:06;;;;;;;41.50;24.60;;;;;;;-2.21;73.15;101040.97;1853037;77;20979;-75
2021/12/30 00:26:33;;;;;;;41.70;25.17;;;;;;;-2.21;73.19;101036.27;1852919;77;20920;-75
2021/12/30 00:29:01;;;;;;;38.75;22.37;;;;;;;-2.20;73.20;101038.84;1852754;77;21470;-74
2021/12/30 00:31:27;;;;;;;37.33;21.48;;;;;;;-2.20;73.21;101041.41;1853081;77;20913;-73
2021/12/30 00:33:54;;;;;;;42.50;24.40;;;;;;;-2.19;73.25;101036.69;1852928;77;20878;-76
2021/12/30 00:36:21;;;;;;;42.73;22.98;;;;;;;-2.17;73.18;101042.68;1853113;77;20940;-74
2021/12/30 00:38:48;;;;;;;43.10;23.32;;;;;;;-2.15;73.18;101040.97;1852748;77;20885;-76
2021/12/30 00:41:15;;;;;;;38.60;23.00;;;;;;;-2.14;73.17;101037.52;1852938;77;22069;-75
2021/12/30 00:43:42;;;;;;;37.75;22.73;;;;;;;-2.12;73.17;101045.23;1852697;77;20956;-75
2021/12/30 00:46:09;;;;;;;36.93;22.55;;;;;;;-2.11;73.09;101048.25;1852673;77;20877;-74
2021/12/30 00:48:36;;;;;;;37.65;22.55;;;;;;;-2.09;73.08;101046.51;1852580;77;21035;-75
2021/12/30 00:51:03;;;;;;;39.60;21.20;;;;;;;-2.08;73.10;101050.81;1854395;77;20870;-75
2021/12/30 00:53:31;;;;;;;37.67;22.62;;;;;;;-2.09;73.06;101049.96;1852682;77;22002;-75
2021/12/30 00:55:58;;;;;;;41.37;24.92;;;;;;;-2.09;73.02;101047.39;1852574;77;20921;-75
2021/12/30 00:58:24;;;;;;;42.30;24.87;;;;;;;-2.09;73.06;101048.67;1852956;77;20897;-76
2021/12/30 01:00:53;;;;;;;39.40;24.37;;;;;;;-2.07;73.01;101045.23;1852598;77;20874;-74
2021/12/30 01:03:22;;;;;;;43.75;24.43;;;;;;;-2.07;73.00;101043.95;1852710;77;20877;-76
2021/12/30 01:05:49;;;;;;;38.55;23.25;;;;;;;-2.07;72.99;101046.52;1852681;77;21964;-74
2021/12/30 01:08:16;;;;;;;39.50;21.55;;;;;;;-2.08;72.97;101039.25;1852693;77;21046;-74
2021/12/30 01:10:45;;;;;;;41.80;24.60;;;;;;;-2.09;72.96;101040.97;1852662;77;20913;-74
2021/12/30 01:13:17;;;;;;;43.90;24.95;;;;;;;-2.08;72.99;101043.09;1852651;77;20905;-75
2021/12/30 01:15:57;;;;;;;35.88;21.42;;;;;;;-2.09;72.97;101051.25;1852191;77;20898;-75
2021/12/30 01:20:48;;;;;;;41.23;21.93;;;;;;;-2.09;72.91;101050.36;1852623;77;20933;-74
2021/12/30 01:23:16;;;;;;;37.90;24.55;;;;;;;-2.11;72.95;101058.09;1852708;77;20901;-75
2021/12/30 01:25:43;;;;;;;45.20;25.62;;;;;;;-2.11;73.03;101067.53;1852590;77;20916;-76
2021/12/30 01:28:10;;;;;;;37.58;21.27;;;;;;;-2.10;73.13;101057.66;1852906;77;20933;-75
2021/12/30 01:30:37;;;;;;;35.60;21.20;;;;;;;-2.08;73.14;101062.38;1852842;77;22154;-76
2021/12/30 01:33:04;;;;;;;43.95;22.32;;;;;;;-2.07;73.14;101064.50;1852499;77;20866;-75
2021/12/30 01:35:31;;;;;;;44.30;24.40;;;;;;;-2.09;73.09;101061.52;1852762;77;20897;-75
2021/12/30 01:38:00;;;;;;;41.42;22.17;;;;;;;-2.09;73.13;101054.22;1852635;77;20905;-76
2021/12/30 01:40:30;;;;;;;40.52;22.87;;;;;;;-2.08;73.10;101053.38;1852672;77;20965;-74
2021/12/30 01:42:57;;;;;;;42.78;24.30;;;;;;;-2.07;73.12;101055.52;1852984;77;21117;-75
2021/12/30 01:45:25;;;;;;;41.25;22.17;;;;;;;-2.07;73.14;101056.36;1852728;77;20865;-75
2021/12/30 01:47:54;;;;;;;46.05;24.82;;;;;;;-2.06;73.11;101055.95;1853044;77;20906;-75
2021/12/30 01:50:22;;;;;;;46.65;25.02;;;;;;;-2.05;73.10;101053.80;1852745;77;20964;-75
2021/12/30 01:52:49;;;;;;;39.50;22.00;;;;;;;-2.05;73.01;101052.52;1852965;77;21470;-76
2021/12/30 01:55:16;;;;;;;43.98;23.67;;;;;;;-2.05;73.00;101058.50;1852706;77;21346;-76
2021/12/30 01:57:43;;;;;;;44.30;23.27;;;;;;;-2.04;73.01;101051.67;1852906;77;20890;-76
2021/12/30 02:00:13;;;;;;;42.00;23.27;;;;;;;-2.04;72.97;101059.38;1852995;77;20910;-76
2021/12/30 02:02:40;;;;;;;39.65;23.15;;;;;;;-2.04;72.97;101061.52;1852879;77;20968;-75
2021/12/30 02:05:09;;;;;;;46.85;25.62;;;;;;;-2.03;72.92;101058.52;1852618;77;20936;-74
2021/12/30 02:07:36;;;;;;;42.35;24.27;;;;;;;-2.05;72.83;101056.37;1853099;77;22273;-75
2021/12/30 02:10:05;;;;;;;48.08;24.27;;;;;;;-2.04;72.84;101063.23;1852426;77;20924;-75
2021/12/30 02:12:36;;;;;;;44.23;24.90;;;;;;;-2.03;72.87;101065.78;1853247;77;20889;-75
2021/12/30 02:15:07;;;;;;;46.73;26.30;;;;;;;-2.02;72.88;101069.20;1854427;77;20924;-76
2021/12/30 02:17:35;;;;;;;43.33;26.05;;;;;;;-2.01;72.91;101074.78;1853022;77;20972;-75
2021/12/30 02:20:06;;;;;;;45.30;24.63;;;;;;;-2.01;72.79;101077.36;1854720;77;21143;-74
2021/12/30 02:22:33;;;;;;;41.70;24.07;;;;;;;-2.06;72.50;101079.08;1856814;77;21312;-75
2021/12/30 02:25:00;;;;;;;33.78;21.15;;;;;;;-2.13;72.84;101076.51;1856592;77;20952;-74
2021/12/30 02:27:27;;;;;;;38.28;22.58;;;;;;;-2.12;73.01;101070.50;1856846;77;20960;-77
2021/12/30 02:29:54;;;;;;;38.38;22.48;;;;;;;-2.11;72.92;101067.53;1856480;77;20860;-75
2021/12/30 02:34:33;;;;;;;33.08;20.25;;;;;;;-2.19;72.80;101074.37;1798658;79;22480;-75
2021/12/30 02:37:01;;;;;;;33.42;19.90;;;;;;;-2.27;73.14;101076.92;1758499;81;20916;-75
2021/12/30 02:39:29;;;;;;;36.25;22.15;;;;;;;-2.25;73.24;101083.35;1758330;81;22009;-74
2021/12/30 02:41:56;;;;;;;33.78;20.97;;;;;;;-2.22;73.29;101088.08;1758210;81;20880;-75
2021/12/30 02:44:23;;;;;;;31.70;20.80;;;;;;;-2.20;73.31;101081.63;1758375;81;20872;-75
2021/12/30 02:46:52;;;;;;;34.63;19.92;;;;;;;-2.19;73.36;101088.50;1758310;81;21406;-73
2021/12/30 02:49:20;;;;;;;29.35;18.82;;;;;;;-2.16;73.41;101098.33;1757967;81;20844;-74
2021/12/30 02:51:47;;;;;;;28.45;18.35;;;;;;;-2.17;73.15;101098.34;1758155;81;21112;-76
2021/12/30 02:54:14;;;;;;;29.92;17.30;;;;;;;-2.21;73.33;101087.64;1758239;81;21398;-74
2021/12/30 02:56:46;;;;;;;30.30;18.50;;;;;;;-2.19;73.35;101092.35;1758333;81;21397;-74
2021/12/30 02:59:10;;;;;;;31.93;19.57;;;;;;;-2.20;73.27;101091.91;1757876;81;20956;-74
2021/12/30 03:01:36;;;;;;;30.12;19.98;;;;;;;-2.23;73.26;101088.91;1758545;81;21026;-75
2021/12/30 03:04:04;;;;;;;33.23;19.15;;;;;;;-2.24;73.54;101092.79;1758308;81;21578;-74
2021/12/30 03:06:32;;;;;;;28.67;18.77;;;;;;;-2.22;73.61;101094.90;1758331;81;20872;-77
2021/12/30 03:08:59;;;;;;;27.35;16.77;;;;;;;-2.20;73.58;101099.21;1758151;81;20979;-76
2021/12/30 03:11:27;;;;;;;27.48;16.87;;;;;;;-2.18;73.56;101101.76;1758270;80;20939;-76
2021/12/30 03:13:54;;;;;;;28.07;17.82;;;;;;;-2.16;73.61;101106.03;1758312;80;20998;-75
2021/12/30 03:16:29;;;;;;;28.85;16.52;;;;;;;-2.14;73.44;101101.75;1758475;81;21090;-76
2021/12/30 03:18:57;;;;;;;31.65;17.92;;;;;;;-2.16;73.35;101104.75;1758144;81;20920;-76
2021/12/30 03:21:25;;;;;;;35.23;20.70;;;;;;;-2.15;73.42;101109.48;1758600;81;20917;-76
2021/12/30 03:23:53;;;;;;;28.38;17.98;;;;;;;-2.15;73.45;101095.36;1758149;81;20944;-77
2021/12/30 03:26:20;;;;;;;31.20;16.35;;;;;;;-2.16;73.36;101098.33;1758785;81;20900;-76
2021/12/30 03:28:47;;;;;;;26.15;16.62;;;;;;;-2.19;73.16;101092.35;1758196;81;21100;-75
2021/12/30 03:31:16;;;;;;;26.15;16.07;;;;;;;-2.23;73.24;101094.48;1758443;81;20837;-76
2021/12/30 03:33:45;;;;;;;25.85;15.78;;;;;;;-2.27;73.43;101100.48;1758324;81;20900;-75
2021/12/30 03:36:12;;;;;;;25.12;15.48;;;;;;;-2.25;73.51;101112.89;1758757;81;21398;-76
2021/12/30 03:38:47;;;;;;;29.02;17.85;;;;;;;-2.23;73.65;101104.77;1760300;80;20964;-75
2021/12/30 03:41:16;;;;;;;31.95;16.80;;;;;;;-2.21;73.71;101115.46;1759009;80;21574;-75
2021/12/30 03:43:43;;;;;;;27.25;17.32;;;;;;;-2.19;73.55;101115.47;1758866;81;20920;-75
2021/12/30 03:46:10;;;;;;;30.85;17.65;;;;;;;-2.21;73.66;101109.04;1758014;81;20936;-75
2021/12/30 03:48:42;;;;;;;25.17;15.58;;;;;;;-2.19;73.73;101115.03;1758007;81;20880;-76
2021/12/30 03:51:09;;;;;;;27.65;16.30;;;;;;;-2.17;73.66;101117.19;1757870;80;21496;-75
2021/12/30 03:53:39;;;;;;;24.30;15.80;;;;;;;-2.13;73.69;101116.77;1757887;81;21161;-76
2021/12/30 03:56:08;;;;;;;30.75;16.90;;;;;;;-2.13;73.66;101120.19;1757735;81;20955;-76
2021/12/30 03:58:36;;;;;;;25.00;15.40;;;;;;;-2.12;73.61;101120.59;1757913;80;20892;-76
2021/12/30 04:01:04;;;;;;;25.57;15.03;;;;;;;-2.10;73.59;101113.75;1758057;81;20897;-74
2021/12/30 04:03:31;;;;;;;24.95;14.45;;;;;;;-2.09;73.63;101112.03;1758029;81;20853;-76
2021/12/30 04:05:58;;;;;;;27.22;17.92;;;;;;;-2.10;73.50;101118.04;1758004;81;22150;-76
2021/12/30 04:08:25;;;;;;;33.45;19.40;;;;;;;-2.09;73.45;101115.48;1758023;80;20837;-76
2021/12/30 04:10:52;;;;;;;37.20;21.10;;;;;;;-2.14;73.21;101115.88;1758230;81;20989;-76
2021/12/30 04:13:19;;;;;;;39.70;21.77;;;;;;;-2.16;73.50;101120.60;1757967;81;20983;-75
2021/12/30 04:15:46;;;;;;;36.48;20.65;;;;;;;-2.16;73.60;101125.30;1757933;80;20892;-76
2021/12/30 04:18:13;;;;;;;35.60;22.00;;;;;;;-2.16;73.51;101129.16;1717214;81;21133;-75
2021/12/30 04:20:39;;;;;;;35.15;21.02;;;;;;;-2.17;73.50;101130.46;1757846;80;20924;-74
2021/12/30 04:23:07;;;;;;;32.88;20.75;;;;;;;-2.19;73.41;101137.31;1757891;80;21507;-74
2021/12/30 04:25:35;;;;;;;31.25;19.17;;;;;;;-2.23;73.46;101140.29;1757880;81;20944;-75
2021/12/30 04:28:02;;;;;;;38.63;21.30;;;;;;;-2.23;73.56;101148.00;1758349;81;20989;-75
2021/12/30 04:30:29;;;;;;;35.90;21.37;;;;;;;-2.23;73.62;101149.72;1757797;80;21078;-76
2021/12/30 04:32:56;;;;;;;35.33;21.33;;;;;;;-2.24;73.57;101155.72;1758025;81;21326;-75
2021/12/30 04:35:23;;;;;;;38.88;23.07;;;;;;;-2.25;73.46;101153.99;1757935;80;20888;-75
2021/12/30 04:37:50;;;;;;;43.60;22.15;;;;;;;-2.29;73.44;101159.54;1757861;81;20966;-76
2021/12/30 04:40:17;;;;;;;46.25;24.12;;;;;;;-2.36;73.52;101161.67;1757947;81;21441;-75
2021/12/30 04:42:44;;;;;;;39.55;22.30;;;;;;;-2.42;73.70;101158.69;1757948;81;21122;-76
2021/12/30 04:45:12;;;;;;;29.07;17.05;;;;;;;-2.42;73.86;101157.80;1757807;81;20900;-75
2021/12/30 04:47:40;;;;;;;36.60;19.55;;;;;;;-2.43;73.94;101164.66;1757755;81;21081;-75
2021/12/30 04:50:09;;;;;;;32.55;20.52;;;;;;;-2.46;73.75;101167.67;1757861;81;20928;-74
2021/12/30 04:52:36;;;;;;;33.00;20.17;;;;;;;-2.50;73.97;101166.36;1757991;81;21019;-75
2021/12/30 04:55:05;;;;;;;31.25;17.60;;;;;;;-2.50;74.11;101168.92;1758011;81;20980;-75
2021/12/30 04:57:33;;;;;;;35.78;20.45;;;;;;;-2.45;74.27;101169.37;1757750;81;21426;-74
2021/12/30 05:00:00;;;;;;;37.38;20.35;;;;;;;-2.39;74.31;101171.95;1757840;81;20979;-75
2021/12/30 05:02:36;;;;;;;36.33;19.65;;;;;;;-2.33;74.36;101174.55;1758869;81;21022;-75
2021/12/30 05:04:56;;;;;;;28.20;16.75;;;;;;;-2.32;73.97;101171.11;1757510;81;20844;-77
2021/12/30 05:07:22;;;;;;;30.15;17.45;;;;;;;-2.33;73.97;101179.69;1757983;80;22145;-76
2021/12/30 05:09:49;;;;;;;34.27;19.37;;;;;;;-2.32;73.89;101181.38;1757807;81;21058;-75
2021/12/30 05:12:17;;;;;;;30.68;18.17;;;;;;;-2.35;73.87;101179.67;1757893;81;21461;-75
2021/12/30 05:14:44;;;;;;;29.65;17.60;;;;;;;-2.34;73.89;101182.65;1757868;80;20900;-76
2021/12/30 05:17:12;;;;;;;27.87;15.83;;;;;;;-2.34;73.89;101186.94;1757876;81;21639;-77
2021/12/30 05:19:39;;;;;;;30.25;16.85;;;;;;;-2.37;73.62;101190.80;1757820;80;21567;-78
2021/12/30 05:22:06;;;;;;;31.20;18.40;;;;;;;-2.40;73.65;101195.91;1757743;81;20947;-74
2021/12/30 05:24:35;;;;;;;37.45;20.92;;;;;;;-2.44;73.54;101192.92;1757850;81;20873;-76
2021/12/30 05:27:01;;;;;;;36.63;19.85;;;;;;;-2.45;73.88;101202.75;1757910;80;20884;-76
2021/12/30 05:29:28;;;;;;;32.35;19.15;;;;;;;-2.40;73.93;101203.61;1757995;81;20967;-76
2021/12/30 05:31:55;;;;;;;29.05;16.20;;;;;;;-2.38;73.64;101213.46;1757903;81;21021;-75
2021/12/30 05:34:23;;;;;;;27.17;16.77;;;;;;;-2.43;73.60;101216.45;1749765;81;20865;-75
2021/12/30 05:36:50;;;;;;;32.40;17.40;;;;;;;-2.47;73.58;101219.42;1744504;82;20932;-77
2021/12/30 05:39:16;;;;;;;28.62;18.48;;;;;;;-2.48;73.85;101213.02;1744339;82;21450;-75
2021/12/30 05:41:43;;;;;;;34.80;17.60;;;;;;;-2.45;73.86;101216.44;1744722;82;20877;-75
2021/12/30 05:44:10;;;;;;;41.77;23.92;;;;;;;-2.47;73.61;101211.72;1744626;80;21145;-75
2021/12/30 05:46:38;;;;;;;34.05;22.17;;;;;;;-2.48;73.91;101214.31;1744435;82;20940;-75
2021/12/30 05:49:05;;;;;;;36.58;20.25;;;;;;;-2.45;73.90;101221.58;1744458;82;20897;-77
2021/12/30 05:51:32;;;;;;;28.50;17.52;;;;;;;-2.48;73.69;101220.73;1744779;82;20885;-75
2021/12/30 05:53:59;;;;;;;30.88;17.82;;;;;;;-2.53;73.76;101222.84;1744508;82;20972;-75
2021/12/30 05:56:26;;;;;;;29.32;18.02;;;;;;;-2.56;73.81;101223.25;1744462;81;21390;-73
2021/12/30 05:58:53;;;;;;;25.68;17.62;;;;;;;-2.62;73.92;101225.82;1744381;82;20882;-75
2021/12/30 06:01:20;;;;;;;31.27;18.48;;;;;;;-2.65;73.98;101227.92;1744756;82;20976;-75
2021/12/30 06:03:47;;;;;;;32.70;17.55;;;;;;;-2.67;74.22;101236.04;1745812;82;20901;-75
2021/12/30 06:06:14;;;;;;;28.90;17.23;;;;;;;-2.67;74.36;101235.19;1746415;82;20933;-77
2021/12/30 06:08:41;;;;;;;28.77;18.70;;;;;;;-2.64;74.46;101241.64;1746139;81;21512;-74
2021/12/30 06:11:08;;;;;;;29.77;16.23;;;;;;;-2.64;74.43;101238.64;1746751;81;21019;-76
2021/12/30 06:13:35;;;;;;;38.42;18.07;;;;;;;-2.66;74.29;101242.91;1747298;81;20912;-75
2021/12/30 06:16:01;;;;;;;33.88;19.05;;;;;;;-2.67;74.64;101243.73;1747275;82;21398;-75
2021/12/30 06:18:28;;;;;;;32.20;17.85;;;;;;;-2.62;74.74;101246.36;1746414;82;20976;-75
2021/12/30 06:20:56;;;;;;;33.15;18.07;;;;;;;-2.58;74.57;101244.20;1746288;82;21213;-74
2021/12/30 06:23:23;;;;;;;30.77;18.20;;;;;;;-2.55;74.51;101244.23;1746395;81;20837;-76
2021/12/30 06:25:50;;;;;;;33.13;18.10;;;;;;;-2.56;74.47;101249.77;1747784;82;20960;-75
2021/12/30 06:28:17;;;;;;;38.95;19.67;;;;;;;-2.56;74.34;101251.49;1747929;80;20964;-77
2021/12/30 06:30:43;;;;;;;33.80;19.10;;;;;;;-2.60;74.39;101253.21;1748200;80;20893;-75
2021/12/30 06:33:10;;;;;;;33.80;19.77;;;;;;;-2.62;74.47;101248.49;1747805;81;21051;-76
2021/12/30 06:35:37;;;;;;;36.23;20.32;;;;;;;-2.62;74.62;101251.06;1747819;80;20878;-75
2021/12/30 06:38:05;;;;;;;30.27;16.77;;;;;;;-2.58;74.90;101251.91;1748105;79;20873;-76
2021/12/30 06:40:32;;;;;;;35.75;23.02;;;;;;;-2.50;74.87;101259.23;1748179;79;20917;-76
2021/12/30 06:42:59;;;;;;;34.27;19.15;;;;;;;-2.46;74.61;101257.11;1747856;79;20853;-77
2021/12/30 06:45:26;;;;;;;34.20;19.17;;;;;;;-2.45;74.58;101259.25;1747859;80;21092;-75
2021/12/30 06:47:53;;;;;;;40.20;20.95;;;;;;;-2.38;74.87;101266.99;1747897;82;20925;-79
2021/12/30 06:50:23;;;;;;;34.67;19.87;;;;;;;-2.27;74.83;101261.86;1748137;82;20896;-77
2021/12/30 06:52:49;;;;;;;34.83;19.30;;;;;;;-2.20;74.49;101266.59;1748034;81;20960;-75
2021/12/30 06:55:15;;;;;;;36.98;19.10;;;;;;;-2.24;74.06;101263.18;1748063;82;20893;-77
2021/12/30 06:57:42;;;;;;;34.70;19.52;;;;;;;-2.28;74.10;101262.73;1748099;80;21131;-76
2021/12/30 07:00:11;;;;;;;32.90;19.12;;;;;;;-2.25;74.31;101267.87;1748315;79;20921;-77
2021/12/30 07:02:37;;;;;;;31.60;18.85;;;;;;;-2.22;74.05;101265.33;1748010;82;21003;-76
2021/12/30 07:05:05;;;;;;;32.53;17.98;;;;;;;-2.24;73.99;101269.60;1748218;81;20968;-76
2021/12/30 07:07:32;;;;;;;36.70;21.02;;;;;;;-2.30;73.73;101270.42;1747963;82;20880;-76
2021/12/30 07:09:59;;;;;;;32.28;19.30;;;;;;;-2.36;73.82;101264.41;1747921;82;21155;-76
2021/12/30 07:12:26;;;;;;;37.05;20.12;;;;;;;-2.37;74.09;101279.41;1747003;82;21027;-76
2021/12/30 07:14:53;;;;;;;33.25;21.60;;;;;;;-2.34;74.21;101281.53;1747316;81;20857;-74
2021/12/30 07:17:20;;;;;;;34.05;20.23;;;;;;;-2.28;74.37;101293.99;1745318;82;20893;-75
2021/12/30 07:19:47;;;;;;;33.02;18.62;;;;;;;-2.21;74.17;101299.14;1745621;82;21008;-74
2021/12/30 07:22:15;;;;;;;36.40;20.00;;;;;;;-2.19;73.84;101301.30;1745836;81;21335;-76
2021/12/30 07:24:43;;;;;;;31.15;19.23;;;;;;;-2.23;73.71;101298.71;1745757;82;21406;-75
2021/12/30 07:27:10;;;;;;;35.63;19.40;;;;;;;-2.25;73.77;101296.56;1745096;82;20929;-76
2021/12/30 07:29:37;;;;;;;35.20;20.85;;;;;;;-2.28;73.79;101301.70;1745170;82;21441;-76
2021/12/30 07:32:05;;;;;;;38.48;22.70;;;;;;;-2.33;74.00;101298.68;1744755;81;20925;-77
2021/12/30 07:34:32;;;;;;;42.43;21.10;;;;;;;-2.31;74.28;101296.12;1748243;80;21119;-76
2021/12/30 07:36:58;;;;;;;37.00;21.12;;;;;;;-2.24;74.32;101298.30;1757950;81;20979;-76
2021/12/30 07:39:25;;;;;;;38.00;22.10;;;;;;;-2.16;74.27;101299.16;1758215;81;20900;-75
2021/12/30 07:41:52;;;;;;;37.42;21.40;;;;;;;-2.06;74.37;101306.05;1757885;81;20865;-76
2021/12/30 07:44:19;;;;;;;38.08;22.20;;;;;;;-1.99;74.18;101303.08;1758203;81;20917;-75
2021/12/30 07:46:45;;;;;;;40.23;21.40;;;;;;;-1.90;74.12;101306.52;1758014;81;21144;-76
2021/12/30 07:49:12;;;;;;;31.97;20.70;;;;;;;-1.82;73.74;101301.81;1758168;81;20927;-76
2021/12/30 07:51:39;;;;;;;38.73;22.20;;;;;;;-1.78;73.48;101301.84;1757941;80;20888;-76
2021/12/30 07:54:06;;;;;;;32.65;18.55;;;;;;;-1.78;73.26;101301.84;1759654;81;21396;-77
2021/12/30 07:56:34;;;;;;;35.73;21.45;;;;;;;-1.78;73.12;101307.39;1758239;81;20881;-76
2021/12/30 07:59:02;;;;;;;33.05;19.48;;;;;;;-1.82;73.17;101312.09;1757957;80;21561;-75
2021/12/30 08:01:29;;;;;;;36.55;21.33;;;;;;;-1.79;73.26;101311.69;1758043;81;20900;-75
2021/12/30 08:03:56;;;;;;;35.30;21.00;;;;;;;-1.79;73.26;101312.97;1757870;81;21369;-77
2021/12/30 08:06:26;;;;;;;33.98;20.75;;;;;;;-1.74;73.33;101312.97;1757696;81;20984;-76
2021/12/30 08:08:51;;;;;;;33.60;20.27;;;;;;;-1.71;73.16;101313.84;1757567;81;20924;-77
2021/12/30 08:11:20;;;;;;;39.10;22.05;;;;;;;-1.71;73.08;101322.00;1757924;80;21485;-75
2021/12/30 08:13:46;;;;;;;31.40;19.27;;;;;;;-1.70;72.99;101316.84;1757926;81;20900;-77
2021/12/30 08:16:14;;;;;;;26.62;16.75;;;;;;;-1.68;72.83;101313.84;1758075;81;20886;-75
2021/12/30 08:18:41;;;;;;;31.65;20.62;;;;;;;-1.69;72.71;101309.57;1757716;80;20976;-76
2021/12/30 08:21:09;;;;;;;33.30;20.62;;;;;;;-1.70;72.77;101310.41;1757856;81;20947;-76
2021/12/30 08:23:36;;;;;;;36.45;20.20;;;;;;;-1.68;72.85;101307.84;1757956;80;21131;-75
2021/12/30 08:26:06;;;;;;;35.25;20.37;;;;;;;-1.68;72.85;101309.98;1757858;80;20857;-77
2021/12/30 08:28:33;;;;;;;30.12;19.82;;;;;;;-1.67;72.78;101309.55;1757977;81;21022;-75
2021/12/30 08:31:00;;;;;;;31.75;19.65;;;;;;;-1.64;73.08;101313.44;1757798;81;20944;-76
2021/12/30 08:33:27;;;;;;;30.50;18.65;;;;;;;-1.59;73.02;101309.58;1757887;81;21018;-75
2021/12/30 08:35:53;;;;;;;33.70;19.70;;;;;;;-1.53;73.22;101322.45;1757669;81;21505;-75
2021/12/30 08:38:20;;;;;;;30.43;19.05;;;;;;;-1.47;72.88;101323.31;1757878;81;20889;-74
2021/12/30 08:40:47;;;;;;;33.92;19.95;;;;;;;-1.45;72.78;101325.86;1757705;81;21007;-76
2021/12/30 08:43:16;;;;;;;26.68;17.48;;;;;;;-1.47;72.62;101331.44;1758140;81;21039;-76
2021/12/30 08:45:45;;;;;;;26.35;16.97;;;;;;;-1.50;72.66;101329.72;1757756;81;20919;-77
2021/12/30 08:48:12;;;;;;;30.48;18.85;;;;;;;-1.50;72.60;101328.44;1757862;81;21546;-79
2021/12/30 08:50:39;;;;;;;29.23;18.05;;;;;;;-1.55;72.67;101324.16;1757944;81;21035;-75
2021/12/30 08:53:06;;;;;;;26.23;16.62;;;;;;;-1.56;72.88;101326.28;1757850;80;20888;-77
2021/12/30 08:55:33;;;;;;;29.45;18.77;;;;;;;-1.53;72.91;101328.45;1757736;81;20893;-76
2021/12/30 08:57:59;;;;;;;25.90;17.23;;;;;;;-1.49;72.75;101327.59;1757713;81;20979;-77
2021/12/30 09:00:29;;;;;;;29.95;18.85;;;;;;;-1.46;72.66;101331.45;1757978;81;21476;-77
2021/12/30 09:02:57;;;;;;;28.92;18.70;;;;;;;-1.46;72.73;101326.73;1757989;81;20924;-76
2021/12/30 09:05:25;;;;;;;32.58;19.42;;;;;;;-1.42;72.86;101333.61;1757780;80;20885;-74
2021/12/30 09:07:52;;;;;;;27.02;17.90;;;;;;;-1.34;72.98;101335.73;1758003;81;20880;-76
2021/12/30 09:10:19;;;;;;;29.55;17.82;;;;;;;-1.25;72.90;101335.73;1757764;80;21076;-75
2021/12/30 09:12:48;;;;;;;28.67;18.15;;;;;;;-1.17;72.58;101334.46;1757864;81;21426;-74
2021/12/30 09:15:17;;;;;;;29.25;19.20;;;;;;;-1.11;72.54;101325.86;1757678;81;20936;-78
2021/12/30 09:17:45;;;;;;;30.15;17.82;;;;;;;-1.08;72.39;101327.17;1759395;81;21366;-75
2021/12/30 09:20:12;;;;;;;23.73;17.42;;;;;;;-1.07;72.15;101325.89;1757878;81;21562;-76
2021/12/30 09:22:39;;;;;;;28.62;16.02;;;;;;;-1.07;72.04;101326.30;1757918;81;21002;-76
2021/12/30 09:25:09;;;;;;;25.92;17.95;;;;;;;-1.07;71.96;101321.15;1757817;80;21576;-79
2021/12/30 09:27:39;;;;;;;27.70;17.70;;;;;;;-1.03;72.09;101319.00;1757877;81;20979;-81
2021/12/30 09:30:13;;;;;;;29.02;17.30;;;;;;;-0.98;72.02;101319.84;1757825;81;20991;-80
2021/12/30 09:32:40;;;;;;;33.00;19.92;;;;;;;-0.94;71.74;101320.71;1758244;80;20928;-77
2021/12/30 09:35:09;;;;;;;26.45;18.20;;;;;;;-0.92;71.77;101321.57;1754366;81;20932;-77
2021/12/30 09:37:36;;;;;;;28.38;18.87;;;;;;;-0.87;71.79;101323.30;1744560;81;21772;-77
2021/12/30 09:40:08;;;;;;;32.70;21.17;;;;;;;-0.86;71.31;101319.84;1744234;82;20941;-76
2021/12/30 09:42:36;;;;;;;32.98;20.25;;;;;;;-0.88;71.50;101321.56;1744493;81;20897;-78
2021/12/30 09:45:04;;;;;;;28.60;19.40;;;;;;;-0.88;71.51;101320.71;1744788;82;21494;-79
2021/12/30 09:47:33;;;;;;;28.80;18.15;;;;;;;-0.86;71.57;101320.28;1744493;81;21382;-80
2021/12/30 09:50:00;;;;;;;29.65;19.50;;;;;;;-0.84;71.56;101318.56;1744758;82;21113;-79
2021/12/30 09:52:27;;;;;;;33.78;20.85;;;;;;;-0.79;71.66;101313.41;1744378;82;20972;-79
2021/12/30 09:54:54;;;;;;;26.95;19.55;;;;;;;-0.73;71.81;101310.83;1734000;82;20885;-79
2021/12/30 09:57:20;;;;;;;29.52;18.87;;;;;;;-0.62;71.72;101323.25;1744472;81;20908;-77
2021/12/30 09:59:47;;;;;;;27.73;17.60;;;;;;;-0.56;71.45;101311.61;1744413;82;21544;-78
2021/12/30 10:02:14;;;;;;;28.52;18.80;;;;;;;-0.50;71.18;101307.73;1744469;82;21509;-78
2021/12/30 10:04:41;;;;;;;27.73;19.60;;;;;;;-0.48;71.09;101311.60;1744737;82;21478;-77
2021/12/30 10:07:20;;;;;;;35.58;19.95;;;;;;;-0.48;71.04;101313.74;1744494;82;20979;-77
2021/12/30 10:09:56;;;;;;;28.80;19.10;;;;;;;-0.48;70.98;101311.17;1744430;82;20984;-79
2021/12/30 10:12:39;;;;;;;29.50;19.30;;;;;;;-0.46;70.95;101308.16;1744436;81;20938;-80
2021/12/30 10:15:07;;;;;;;;;;;;;;;-0.41;70.93;101304.27;1747131;81;21121;-80
2021/12/30 10:17:34;;;;;;;27.32;17.35;;;;;;;-0.36;70.86;101308.12;1744385;82;20089;-78
2021/12/30 10:20:17;;;;;;;28.70;18.35;;;;;;;-0.34;70.72;101310.26;1744740;82;20900;-78
2021/12/30 10:22:46;;;;;;;25.48;17.32;;;;;;;-0.31;70.85;101307.25;1744507;82;21450;-77
2021/12/30 10:25:36;;;;;;;30.27;19.05;;;;;;;-0.31;70.47;101301.22;1744553;82;20928;-78
2021/12/30 10:28:31;;;;;;;28.55;16.50;;;;;;;-0.32;70.75;101309.38;1744049;81;21211;-78
2021/12/30 10:31:04;;;;;;;26.60;16.95;;;;;;;-0.25;70.74;101312.80;1744853;82;21406;-78
2021/12/30 10:33:31;;;;;;;22.30;15.45;;;;;;;-0.20;70.56;101309.79;1732845;82;20980;-78
2021/12/30 10:35:58;;;;;;;24.67;15.72;;;;;;;-0.18;70.30;101303.31;1744189;82;20952;-78
2021/12/30 10:38:30;;;;;;;27.32;17.87;;;;;;;-0.19;70.08;101307.62;1744428;82;21627;-79
2021/12/30 10:41:02;;;;;;;27.58;18.87;;;;;;;-0.25;70.12;101302.05;1745405;81;20925;-76
2021/12/30 10:43:55;;;;;;;26.73;16.87;;;;;;;-0.27;70.37;101301.63;1745431;81;20944;-77
2021/12/30 10:46:15;;;;;;;25.05;15.88;;;;;;;-0.27;70.40;101305.09;1740704;81;20967;-78
2021/12/30 10:48:55;;;;;;;22.45;15.60;;;;;;;-0.30;70.13;101303.80;1744580;82;20909;-76
2021/12/30 10:51:47;;;;;;;29.82;18.48;;;;;;;-0.33;70.31;101299.11;1744441;80;20897;-77
2021/12/30 10:54:30;;;;;;;29.63;17.25;;;;;;;-0.40;70.13;101294.41;1744435;81;21151;-78
2021/12/30 10:57:06;;;;;;;21.37;15.25;;;;;;;-0.42;70.38;101301.28;1744736;81;21445;-77
2021/12/30 10:59:39;;;;;;;24.12;18.15;;;;;;;-0.42;70.40;101304.71;1744546;82;20932;-77
2021/12/30 11:02:21;;;;;;;29.32;18.17;;;;;;;-0.41;70.39;101302.98;1744725;82;21374;-77
2021/12/30 11:04:57;;;;;;;32.98;21.00;;;;;;;-0.40;70.41;101302.55;1744528;81;20996;-76
2021/12/30 11:07:46;;;;;;;27.58;16.80;;;;;;;-0.39;70.42;101293.97;1744549;81;20984;-78
2021/12/30 11:10:12;;;;;;;27.15;16.55;;;;;;;-0.38;70.04;101298.25;1734202;82;20968;-76
2021/12/30 11:12:46;;;;;;;30.02;17.27;;;;;;;-0.47;70.06;101303.00;1744650;81;20917;-76
2021/12/30 11:15:25;;;;;;;29.82;18.60;;;;;;;-0.50;70.16;101304.31;1744540;81;20881;-77
2021/12/30 11:18:15;;;;;;;37.48;21.52;;;;;;;-0.54;70.50;101309.04;1744658;81;21362;-77
2021/12/30 11:20:46;;;;;;;27.07;19.02;;;;;;;-0.48;70.83;101306.45;1743405;81;21198;-77